ヤクーツク の空港の天気 - METARとTAF

ヤクーツク空港 ( UEEE / YKS ) - ロシア ヤクーツク
飛行場実況気象(Metar)
観測時間01/23 14:30 YAKT (01/23 05:30 UTC)
風向・風速北北東 2m/s
視程5000m
天気現象もや
なし
気温-38℃
湿度66%
気圧1024hPa
METARUEEE 230530Z 02002MPS 5000 BR NSC M38/M42 Q1024 R23L/490150 NOSIG RMK QFE759
過去の天気等 Google飛行場航空写真 Wunderground天気予報

過去48時間のMETAR

飛行場予報(TAF)
発表時間: 1/23 14:00 YAKT (1/23 05:00 UTC)
予報対象時間: 23日15時 YAKT ~ 24日21時 YAKT
風向・風速北北東 3m/s
視程5,000m
天気現象弱い雪
全天を覆う雲 雲底高度 2,130m
23日15時 YAKT ~ 23日24時 YAKT に一時的に
視程2,100m
天気現象弱い雪 もや
TAF UEEE 230500Z 2306/2412 02003MPS 5000 -SN OVC070
TEMPO 2306/2315 2100 -SN BR